createdAt,value
2023-10-09T00:01:14.666Z,25.20
2023-10-09T00:06:24.833Z,25.17
2023-10-09T00:11:31.515Z,25.14
2023-10-09T00:16:41.882Z,25.16
2023-10-09T00:21:46.670Z,25.19
2023-10-09T00:26:52.768Z,25.14
2023-10-09T00:32:04.950Z,25.14
2023-10-09T00:37:12.210Z,25.15
2023-10-09T00:42:27.529Z,25.12
2023-10-09T00:47:36.019Z,25.16
2023-10-09T00:52:44.716Z,25.11
2023-10-09T00:57:58.043Z,25.15
2023-10-09T01:03:21.296Z,25.13
2023-10-09T01:08:32.161Z,25.12
2023-10-09T01:13:53.843Z,25.11
2023-10-09T01:18:59.146Z,25.10
2023-10-09T01:24:10.213Z,25.10
2023-10-09T01:29:18.108Z,25.08
2023-10-09T01:34:25.686Z,25.10
2023-10-09T01:39:31.885Z,25.07
2023-10-09T01:44:37.108Z,25.11
2023-10-09T01:49:42.978Z,25.06
2023-10-09T01:54:50.598Z,25.07
2023-10-09T01:59:55.798Z,25.05
2023-10-09T02:05:09.493Z,25.01
2023-10-09T02:10:27.212Z,25.00
2023-10-09T02:15:50.084Z,25.00
2023-10-09T02:21:02.467Z,25.01
2023-10-09T02:26:07.614Z,24.98
2023-10-09T02:31:14.977Z,24.98
2023-10-09T02:36:18.802Z,25.01
2023-10-09T02:41:29.896Z,24.95
2023-10-09T02:46:36.005Z,24.95
2023-10-09T02:51:43.258Z,24.96
2023-10-09T02:56:56.348Z,24.92
2023-10-09T03:02:01.036Z,24.96
2023-10-09T03:07:05.800Z,24.98
2023-10-09T03:12:13.351Z,24.95
2023-10-09T03:17:16.957Z,24.97
2023-10-09T03:22:20.537Z,24.94
2023-10-09T03:27:25.530Z,24.95
2023-10-09T03:32:29.223Z,24.95
2023-10-09T03:37:36.749Z,24.93
2023-10-09T03:42:43.625Z,24.93
2023-10-09T03:47:49.645Z,24.92
2023-10-09T03:52:56.185Z,24.90
2023-10-09T03:58:02.244Z,24.96
2023-10-09T04:03:07.162Z,24.91
2023-10-09T04:08:14.318Z,24.92
2023-10-09T04:13:23.753Z,24.91
2023-10-09T04:18:34.504Z,24.91
2023-10-09T04:23:58.248Z,24.89
2023-10-09T04:29:03.626Z,24.88
2023-10-09T04:34:36.115Z,24.92
2023-10-09T04:39:47.934Z,24.88
2023-10-09T04:45:10.219Z,24.87
2023-10-09T04:50:15.801Z,24.87
2023-10-09T04:55:21.653Z,24.85
2023-10-09T05:00:48.451Z,24.86
2023-10-09T05:06:00.001Z,24.90
2023-10-09T05:11:18.285Z,24.87
2023-10-09T05:16:27.058Z,24.85
2023-10-09T05:21:49.022Z,24.84
2023-10-09T05:27:14.179Z,24.84
2023-10-09T05:32:29.354Z,24.86
2023-10-09T05:37:35.776Z,24.85
2023-10-09T05:42:45.998Z,24.81
2023-10-09T05:47:54.739Z,24.84
2023-10-09T05:53:09.062Z,24.83
2023-10-09T05:58:30.169Z,24.83
2023-10-09T06:03:50.838Z,24.80
2023-10-09T06:09:12.125Z,24.78
2023-10-09T06:14:16.109Z,24.79
2023-10-09T06:19:28.664Z,24.79
2023-10-09T06:24:43.115Z,24.76
2023-10-09T06:30:15.772Z,24.76
2023-10-09T06:35:23.455Z,24.78
2023-10-09T06:40:44.274Z,24.77
2023-10-09T06:45:55.197Z,24.77
2023-10-09T06:51:05.810Z,24.75
2023-10-09T06:56:10.076Z,24.74
2023-10-09T07:01:30.425Z,24.75
2023-10-09T07:06:52.840Z,24.72
2023-10-09T07:12:00.918Z,24.74
2023-10-09T07:17:17.311Z,24.72
2023-10-09T07:22:30.719Z,24.72
2023-10-09T07:27:46.613Z,24.69
2023-10-09T07:32:54.134Z,24.73
2023-10-09T07:37:59.051Z,24.72
2023-10-09T07:43:06.968Z,24.73
2023-10-09T07:48:16.389Z,24.71
2023-10-09T07:53:27.435Z,24.71
2023-10-09T07:58:32.074Z,24.73
2023-10-09T08:03:37.246Z,24.72
2023-10-09T08:09:02.385Z,24.75
2023-10-09T08:14:21.934Z,24.73
2023-10-09T08:19:35.142Z,24.76
2023-10-09T08:24:43.870Z,24.78
2023-10-09T08:29:49.252Z,24.79
2023-10-09T08:40:08.602Z,24.78
2023-10-09T08:45:15.929Z,24.82
2023-10-09T08:50:21.396Z,24.79
2023-10-09T08:55:26.753Z,24.83
2023-10-09T09:00:34.940Z,24.84
2023-10-09T09:05:38.948Z,24.85
2023-10-09T09:10:48.755Z,24.88
2023-10-09T09:15:54.731Z,24.88
2023-10-09T09:20:59.083Z,24.83
2023-10-09T09:26:13.090Z,24.86
2023-10-09T09:31:23.797Z,24.89
2023-10-09T09:36:30.423Z,24.92
2023-10-09T09:41:37.276Z,24.91
2023-10-09T09:46:43.880Z,24.96
2023-10-09T09:51:48.742Z,25.00
2023-10-09T09:56:55.749Z,25.03
2023-10-09T10:02:08.432Z,24.93
2023-10-09T10:07:17.545Z,25.05
2023-10-09T10:13:01.802Z,25.06
2023-10-09T10:18:20.233Z,25.04
2023-10-09T10:23:27.000Z,25.10
2023-10-09T10:28:40.300Z,25.14
2023-10-09T10:34:08.307Z,25.05
2023-10-09T10:39:13.005Z,25.11
2023-10-09T10:44:38.385Z,25.05
2023-10-09T10:49:46.204Z,25.15
2023-10-09T10:55:07.312Z,25.16
2023-10-09T11:00:35.862Z,25.11
2023-10-09T11:05:41.229Z,25.06
2023-10-09T11:10:52.250Z,25.08
2023-10-09T11:16:15.900Z,25.07
2023-10-09T11:21:32.895Z,25.04
2023-10-09T11:26:41.849Z,25.14
2023-10-09T11:32:01.348Z,25.18
2023-10-09T11:37:07.437Z,25.11
2023-10-09T11:42:12.545Z,25.12
2023-10-09T11:47:34.014Z,25.16
2023-10-09T11:52:39.269Z,25.09
2023-10-09T11:57:43.089Z,25.13
2023-10-09T12:02:48.139Z,25.13
2023-10-09T12:07:56.401Z,25.20
2023-10-09T12:13:00.324Z,25.19
2023-10-09T12:23:16.186Z,25.18
2023-10-09T12:28:21.886Z,25.15
2023-10-09T12:33:29.552Z,25.16
2023-10-09T12:38:36.387Z,25.23
2023-10-09T12:43:40.436Z,25.11
2023-10-09T12:48:47.506Z,25.15
2023-10-09T12:53:58.141Z,25.09
2023-10-09T12:59:03.028Z,25.14
2023-10-09T13:04:12.945Z,25.13
2023-10-09T13:09:17.722Z,25.12
2023-10-09T13:14:23.226Z,25.10
2023-10-09T13:19:28.274Z,25.14
2023-10-09T13:24:32.288Z,25.12
2023-10-09T13:29:35.861Z,25.11
2023-10-09T13:34:46.267Z,25.15
2023-10-09T13:39:54.907Z,25.09
2023-10-09T13:44:58.492Z,25.21
2023-10-09T13:50:03.618Z,25.17
2023-10-09T13:55:16.881Z,25.18
2023-10-09T14:00:34.360Z,25.18
2023-10-09T14:05:53.447Z,25.15
2023-10-09T14:10:57.062Z,25.18
2023-10-09T14:16:03.570Z,25.14
2023-10-09T14:21:17.822Z,25.22
2023-10-09T14:26:23.876Z,25.21
2023-10-09T14:31:30.682Z,25.20
2023-10-09T14:36:35.892Z,25.24
2023-10-09T14:41:40.646Z,25.18
2023-10-09T14:46:44.855Z,25.20
2023-10-09T14:51:50.286Z,25.15
2023-10-09T14:56:56.316Z,25.15
2023-10-09T15:02:00.540Z,25.19
2023-10-09T15:07:08.285Z,25.14
2023-10-09T15:12:13.183Z,25.18
2023-10-09T15:17:17.436Z,25.16
2023-10-09T15:22:23.448Z,25.12
2023-10-09T15:27:27.380Z,25.19
2023-10-09T15:32:31.015Z,25.17
2023-10-09T15:37:35.920Z,25.13
2023-10-09T15:42:39.457Z,25.13
2023-10-09T15:47:46.175Z,25.15
2023-10-09T15:52:53.041Z,25.17
2023-10-09T15:57:56.793Z,25.16
2023-10-09T16:03:02.284Z,25.16
2023-10-09T16:08:07.435Z,25.14
2023-10-09T16:13:14.415Z,25.11
2023-10-09T16:18:18.712Z,25.16
2023-10-09T16:23:23.715Z,25.15
2023-10-09T16:28:28.350Z,25.18
2023-10-09T16:33:31.886Z,25.18
2023-10-09T16:38:40.668Z,25.12
2023-10-09T16:43:45.204Z,25.21
2023-10-09T16:48:53.371Z,25.14
2023-10-09T16:53:59.539Z,25.15
2023-10-09T16:59:06.632Z,25.14
2023-10-09T17:04:13.348Z,25.19
2023-10-09T17:09:21.316Z,25.14
2023-10-09T17:14:27.558Z,25.13
2023-10-09T17:19:32.630Z,25.16
2023-10-09T17:24:37.483Z,25.15
2023-10-09T17:29:40.957Z,25.21
2023-10-09T17:34:45.509Z,25.21
2023-10-09T17:39:50.508Z,25.20
2023-10-09T17:44:56.897Z,25.23
2023-10-09T17:50:00.702Z,25.16
2023-10-09T17:55:08.295Z,25.13
2023-10-09T18:00:23.867Z,25.14
2023-10-09T18:05:31.002Z,25.10
2023-10-09T18:10:42.856Z,25.11
2023-10-09T18:15:46.492Z,25.10
2023-10-09T18:20:50.505Z,25.13
2023-10-09T18:26:02.921Z,25.11
2023-10-09T18:31:14.290Z,25.09
2023-10-09T18:36:19.350Z,25.11
2023-10-09T18:41:25.439Z,25.15
2023-10-09T18:46:29.048Z,25.10
2023-10-09T18:51:33.700Z,25.11
2023-10-09T18:56:38.860Z,25.09
2023-10-09T19:01:42.694Z,25.12
2023-10-09T19:06:47.480Z,25.09
2023-10-09T19:11:53.138Z,25.09
2023-10-09T19:16:59.764Z,25.08
2023-10-09T19:22:03.386Z,25.10
2023-10-09T19:27:09.478Z,25.09
2023-10-09T19:32:14.769Z,25.08
2023-10-09T19:37:20.854Z,25.08
2023-10-09T19:42:26.188Z,25.13
2023-10-09T19:47:30.166Z,25.16
2023-10-09T19:52:33.723Z,25.13
2023-10-09T19:57:40.007Z,25.11
2023-10-09T20:02:44.077Z,25.13
2023-10-09T20:07:47.842Z,25.08
2023-10-09T20:12:52.745Z,25.08
2023-10-09T20:17:56.275Z,25.08
2023-10-09T20:23:00.570Z,25.07
2023-10-09T20:28:06.136Z,25.11
2023-10-09T20:33:09.749Z,25.09
2023-10-09T20:38:17.014Z,25.05
2023-10-09T20:43:22.043Z,25.06
2023-10-09T20:48:25.514Z,25.08
2023-10-09T20:53:29.305Z,25.07
2023-10-09T20:58:35.219Z,25.09
2023-10-09T21:03:38.864Z,25.10
2023-10-09T21:08:43.159Z,25.09
2023-10-09T21:13:48.215Z,25.10
2023-10-09T21:18:55.981Z,25.10
2023-10-09T21:23:59.528Z,25.08
2023-10-09T21:29:04.842Z,25.06
2023-10-09T21:34:08.318Z,25.08
2023-10-09T21:39:11.853Z,25.23
2023-10-09T21:44:16.874Z,25.07
2023-10-09T21:49:20.410Z,25.13
2023-10-09T21:54:23.915Z,25.09
2023-10-09T21:59:31.425Z,25.03
2023-10-09T22:04:34.950Z,25.08
2023-10-09T22:09:38.512Z,25.08
2023-10-09T22:14:43.865Z,25.03
2023-10-09T22:19:47.919Z,25.03
2023-10-09T22:24:51.833Z,25.09
2023-10-09T22:29:56.962Z,25.08
2023-10-09T22:35:02.287Z,25.04
2023-10-09T22:40:22.081Z,25.01
2023-10-09T22:45:33.538Z,25.05
2023-10-09T22:50:37.602Z,25.09
2023-10-09T22:55:45.474Z,25.09
2023-10-09T23:00:54.175Z,25.07
2023-10-09T23:05:59.361Z,25.09
2023-10-09T23:11:10.979Z,25.06
2023-10-09T23:16:16.104Z,25.11
2023-10-09T23:21:23.405Z,25.07
2023-10-09T23:26:30.961Z,25.02
2023-10-09T23:31:47.879Z,25.06
2023-10-09T23:36:56.386Z,25.06
2023-10-09T23:42:02.968Z,25.01
2023-10-09T23:47:17.796Z,24.99
2023-10-09T23:52:25.214Z,25.02
2023-10-09T23:57:30.225Z,25.04
